createdAt,value
2023-03-31T00:01:24.470Z,97.81
2023-03-31T00:04:28.515Z,97.63
2023-03-31T00:07:31.065Z,98.79
2023-03-31T00:10:35.036Z,98.34
2023-03-31T00:13:38.113Z,97.96
2023-03-31T00:16:41.192Z,97.92
2023-03-31T00:19:43.745Z,97.93
2023-03-31T00:22:46.856Z,98.91
2023-03-31T00:25:49.324Z,99.16
2023-03-31T00:28:53.011Z,99.14
2023-03-31T00:31:56.139Z,99.96
2023-03-31T00:34:58.968Z,99.42
2023-03-31T00:38:01.529Z,99.42
2023-03-31T00:41:04.699Z,100.00
2023-03-31T00:44:23.059Z,100.00
2023-03-31T00:47:27.160Z,100.00
2023-03-31T00:50:33.289Z,100.00
2023-03-31T00:53:37.105Z,100.00
2023-03-31T00:56:42.337Z,100.00
2023-03-31T00:59:53.836Z,99.99
2023-03-31T01:02:59.013Z,99.36
2023-03-31T01:06:06.498Z,98.40
2023-03-31T01:09:10.010Z,98.46
2023-03-31T01:12:14.160Z,98.53
2023-03-31T01:15:16.808Z,99.04
2023-03-31T01:18:21.795Z,99.61
2023-03-31T01:21:30.637Z,99.68
2023-03-31T01:24:38.014Z,100.00
2023-03-31T01:28:02.697Z,100.00
2023-03-31T01:31:31.824Z,100.00
2023-03-31T01:34:59.173Z,100.00
2023-03-31T01:38:02.277Z,100.00
2023-03-31T01:41:11.628Z,100.00
2023-03-31T01:44:43.699Z,100.00
2023-03-31T01:48:04.440Z,100.00
2023-03-31T01:51:13.611Z,100.00
2023-03-31T01:54:23.160Z,100.00
2023-03-31T01:57:37.669Z,100.00
2023-03-31T02:01:03.664Z,100.00
2023-03-31T02:04:17.503Z,100.00
2023-03-31T02:07:34.571Z,100.00
2023-03-31T02:10:39.528Z,100.00
2023-03-31T02:13:46.951Z,100.00
2023-03-31T02:16:54.061Z,100.00
2023-03-31T02:20:06.334Z,100.00
2023-03-31T02:23:10.808Z,100.00
2023-03-31T02:26:16.382Z,100.00
2023-03-31T02:29:19.665Z,100.00
2023-03-31T02:32:35.264Z,100.00
2023-03-31T02:35:37.913Z,100.00
2023-03-31T02:38:45.398Z,100.00
2023-03-31T02:41:47.845Z,100.00
2023-03-31T02:44:50.733Z,100.00
2023-03-31T02:47:54.131Z,100.00
2023-03-31T02:51:12.387Z,100.00
2023-03-31T02:54:58.318Z,100.00
2023-03-31T02:58:12.507Z,100.00
2023-03-31T03:01:33.102Z,100.00
2023-03-31T03:05:02.269Z,100.00
2023-03-31T03:08:17.931Z,100.00
2023-03-31T03:11:56.739Z,99.43
2023-03-31T03:15:13.915Z,99.53
2023-03-31T03:18:16.950Z,99.55
2023-03-31T03:21:19.503Z,99.71
2023-03-31T03:24:23.004Z,99.05
2023-03-31T03:27:25.497Z,99.23
2023-03-31T03:30:28.523Z,98.74
2023-03-31T03:33:31.062Z,98.58
2023-03-31T03:36:33.945Z,97.79
2023-03-31T03:39:36.457Z,97.88
2023-03-31T03:42:39.228Z,98.29
2023-03-31T03:45:41.726Z,99.22
2023-03-31T03:48:44.611Z,99.34
2023-03-31T03:51:47.273Z,98.87
2023-03-31T03:54:50.287Z,98.88
2023-03-31T03:57:52.812Z,98.92
2023-03-31T04:00:57.075Z,98.47
2023-03-31T04:04:00.108Z,99.06
2023-03-31T04:07:02.626Z,99.89
2023-03-31T04:10:06.128Z,100.00
2023-03-31T04:13:08.706Z,100.00
2023-03-31T04:16:12.035Z,99.80
2023-03-31T04:19:17.745Z,100.00
2023-03-31T04:22:20.883Z,100.00
2023-03-31T04:25:23.762Z,99.74
2023-03-31T04:28:34.998Z,99.58
2023-03-31T04:31:42.814Z,98.98
2023-03-31T04:34:46.578Z,99.41
2023-03-31T04:37:50.176Z,99.22
2023-03-31T04:40:53.481Z,98.35
2023-03-31T04:43:56.095Z,98.33
2023-03-31T04:47:02.898Z,98.86
2023-03-31T04:50:06.515Z,98.77
2023-03-31T04:53:09.492Z,98.40
2023-03-31T04:56:12.355Z,98.82
2023-03-31T04:59:15.178Z,99.15
2023-03-31T05:02:25.190Z,99.05
2023-03-31T05:05:28.591Z,97.83
2023-03-31T05:08:31.424Z,98.69
2023-03-31T05:11:34.390Z,98.64
2023-03-31T05:14:36.901Z,97.83
2023-03-31T05:17:40.043Z,97.26
2023-03-31T05:20:42.994Z,98.11
2023-03-31T05:23:46.601Z,99.38
2023-03-31T05:26:52.825Z,100.00
2023-03-31T05:29:56.010Z,100.00
2023-03-31T05:32:58.646Z,100.00
2023-03-31T05:36:01.554Z,100.00
2023-03-31T05:39:08.076Z,100.00
2023-03-31T05:42:11.037Z,100.00
2023-03-31T05:45:13.801Z,100.00
2023-03-31T05:48:16.837Z,100.00
2023-03-31T05:51:19.360Z,100.00
2023-03-31T05:54:22.754Z,100.00
2023-03-31T05:57:25.527Z,100.00
2023-03-31T06:00:28.661Z,100.00
2023-03-31T06:03:33.248Z,100.00
2023-03-31T06:06:38.171Z,100.00
2023-03-31T06:09:41.212Z,100.00
2023-03-31T06:12:43.729Z,100.00
2023-03-31T06:15:57.124Z,100.00
2023-03-31T06:18:59.734Z,100.00
2023-03-31T06:22:02.659Z,100.00
2023-03-31T06:25:05.776Z,100.00
2023-03-31T06:28:08.749Z,100.00
2023-03-31T06:31:14.072Z,100.00
2023-03-31T06:34:18.484Z,100.00
2023-03-31T06:37:22.667Z,100.00
2023-03-31T06:40:25.659Z,100.00
2023-03-31T06:43:28.489Z,100.00
2023-03-31T06:46:31.449Z,100.00
2023-03-31T06:49:34.401Z,99.14
2023-03-31T06:52:37.383Z,99.07
2023-03-31T06:55:40.288Z,98.42
2023-03-31T06:58:43.156Z,98.28
2023-03-31T07:01:46.095Z,97.56
2023-03-31T07:04:48.963Z,95.80
2023-03-31T07:07:51.485Z,95.08
2023-03-31T07:10:57.970Z,94.06
2023-03-31T07:14:00.571Z,93.08
2023-03-31T07:17:03.783Z,91.34
2023-03-31T07:20:12.629Z,91.70
2023-03-31T07:23:15.857Z,91.32
2023-03-31T07:26:18.635Z,91.19
2023-03-31T07:29:21.513Z,88.65
2023-03-31T07:32:28.933Z,87.04
2023-03-31T07:35:32.100Z,86.07
2023-03-31T07:38:34.760Z,86.35
2023-03-31T07:41:37.812Z,84.65
2023-03-31T07:44:40.615Z,83.91
2023-03-31T07:47:44.831Z,84.32
2023-03-31T07:50:48.521Z,82.47
2023-03-31T07:53:52.772Z,81.51
2023-03-31T07:56:55.488Z,82.56
2023-03-31T07:59:58.355Z,82.24
2023-03-31T08:03:01.151Z,81.76
2023-03-31T08:06:04.197Z,81.37
2023-03-31T08:09:09.565Z,80.17
2023-03-31T08:12:13.078Z,79.86
2023-03-31T08:15:16.495Z,79.67
2023-03-31T08:18:20.098Z,79.17
2023-03-31T08:21:24.603Z,78.98
2023-03-31T08:24:27.635Z,79.30
2023-03-31T08:27:33.592Z,76.45
2023-03-31T08:30:42.708Z,75.62
2023-03-31T08:33:46.686Z,76.41
2023-03-31T08:36:49.540Z,75.95
2023-03-31T08:39:52.361Z,73.79
2023-03-31T08:43:23.395Z,74.40
2023-03-31T08:46:27.804Z,72.50
2023-03-31T08:49:41.714Z,71.42
2023-03-31T08:52:51.010Z,69.35
2023-03-31T08:55:55.508Z,67.87
2023-03-31T08:59:02.206Z,68.04
2023-03-31T09:02:57.657Z,67.27
2023-03-31T09:06:23.672Z,68.39
2023-03-31T09:09:48.885Z,65.77
2023-03-31T09:12:58.088Z,65.58
2023-03-31T09:16:17.007Z,65.16
2023-03-31T09:19:38.308Z,65.42
2023-03-31T09:22:48.236Z,64.60
2023-03-31T09:25:51.432Z,63.40
2023-03-31T09:28:57.535Z,63.01
2023-03-31T09:32:03.094Z,63.39
2023-03-31T09:35:21.625Z,61.36
2023-03-31T09:38:24.379Z,63.07
2023-03-31T09:41:27.709Z,61.56
2023-03-31T09:44:40.033Z,61.07
2023-03-31T09:47:45.383Z,58.44
2023-03-31T09:50:55.071Z,58.34
2023-03-31T09:54:22.044Z,61.30
2023-03-31T09:57:33.756Z,58.13
2023-03-31T10:00:41.446Z,58.63
2023-03-31T10:03:49.570Z,55.83
2023-03-31T10:06:53.591Z,56.07
2023-03-31T10:09:57.394Z,55.27
2023-03-31T10:13:01.719Z,54.96
2023-03-31T10:16:08.978Z,55.51
2023-03-31T10:19:13.447Z,56.23
2023-03-31T10:22:27.713Z,56.11
2023-03-31T10:25:30.926Z,56.92
2023-03-31T10:28:35.680Z,57.66
2023-03-31T10:31:38.941Z,58.11
2023-03-31T10:34:42.713Z,58.51
2023-03-31T10:37:45.428Z,58.56
2023-03-31T10:40:54.528Z,57.51
2023-03-31T10:44:02.349Z,56.43
2023-03-31T10:47:16.407Z,54.46
2023-03-31T10:50:18.917Z,54.46
2023-03-31T10:53:22.172Z,55.72
2023-03-31T10:56:42.544Z,55.65
2023-03-31T11:00:09.041Z,53.99
2023-03-31T11:03:33.139Z,54.38
2023-03-31T11:07:19.502Z,53.38
2023-03-31T11:10:41.831Z,55.31
2023-03-31T11:14:03.175Z,52.42
2023-03-31T11:17:27.102Z,52.95
2023-03-31T11:20:54.093Z,53.58
2023-03-31T11:24:18.364Z,53.58
2023-03-31T11:27:21.228Z,53.94
2023-03-31T11:30:56.897Z,53.01
2023-03-31T11:34:18.370Z,51.73
2023-03-31T11:37:41.703Z,52.52
2023-03-31T11:40:50.464Z,52.44
2023-03-31T11:44:03.896Z,52.77
2023-03-31T11:47:09.837Z,51.04
2023-03-31T11:50:38.596Z,52.33
2023-03-31T11:53:43.334Z,51.10
2023-03-31T11:56:46.388Z,51.32
2023-03-31T11:59:56.108Z,51.54
2023-03-31T12:03:10.463Z,52.46
2023-03-31T12:06:19.977Z,52.90
2023-03-31T12:09:33.144Z,51.69
2023-03-31T12:12:41.982Z,51.09
2023-03-31T12:15:47.921Z,51.80
2023-03-31T12:18:56.913Z,51.24
2023-03-31T12:22:24.305Z,49.53
2023-03-31T12:25:34.596Z,46.05
2023-03-31T12:28:38.297Z,47.09
2023-03-31T12:31:44.615Z,48.77
2023-03-31T12:35:10.447Z,48.37
2023-03-31T12:38:25.793Z,49.15
2023-03-31T12:41:52.845Z,49.72
2023-03-31T12:45:20.618Z,51.21
2023-03-31T12:48:42.192Z,50.69
2023-03-31T12:52:04.213Z,50.26
2023-03-31T12:55:33.495Z,50.34
2023-03-31T12:58:42.238Z,52.35
2023-03-31T13:02:09.974Z,51.14
2023-03-31T13:05:38.237Z,50.29
2023-03-31T13:08:50.068Z,48.92
2023-03-31T13:11:53.186Z,49.69
2023-03-31T13:15:01.684Z,50.08
2023-03-31T13:18:06.642Z,50.96
2023-03-31T13:21:09.413Z,51.54
2023-03-31T13:24:14.542Z,52.47
2023-03-31T13:27:35.700Z,52.62
2023-03-31T13:30:38.731Z,52.48
2023-03-31T13:33:45.812Z,51.50
2023-03-31T13:36:56.270Z,50.96
2023-03-31T13:40:09.239Z,51.42
2023-03-31T13:43:23.773Z,51.10
2023-03-31T13:46:58.588Z,51.79
2023-03-31T13:50:16.363Z,52.23
2023-03-31T13:53:45.347Z,51.93
2023-03-31T13:57:31.822Z,51.84
2023-03-31T14:01:07.624Z,51.91
2023-03-31T14:04:34.943Z,51.25
2023-03-31T14:07:50.939Z,51.70
2023-03-31T14:10:54.062Z,51.60
2023-03-31T14:14:06.788Z,50.68
2023-03-31T14:17:11.442Z,50.80
2023-03-31T14:20:21.074Z,50.53
2023-03-31T14:23:35.646Z,50.14
2023-03-31T14:26:42.317Z,49.84
2023-03-31T14:29:51.586Z,50.11
2023-03-31T14:33:15.325Z,50.23
2023-03-31T14:36:38.190Z,50.64
2023-03-31T14:39:44.658Z,50.71
2023-03-31T14:42:50.273Z,50.73
2023-03-31T14:46:04.779Z,50.87
2023-03-31T14:49:16.440Z,50.52
2023-03-31T14:52:21.443Z,49.53
2023-03-31T14:55:35.611Z,50.21
2023-03-31T14:58:50.042Z,50.44
2023-03-31T15:01:53.099Z,49.22
2023-03-31T15:04:56.661Z,48.54
2023-03-31T15:08:02.771Z,48.84
2023-03-31T15:11:12.917Z,48.84
2023-03-31T15:14:16.970Z,49.79
2023-03-31T15:17:26.566Z,49.95
2023-03-31T15:20:32.097Z,50.04
2023-03-31T15:23:40.679Z,51.10
2023-03-31T15:27:01.023Z,51.26
2023-03-31T15:30:08.467Z,52.54
2023-03-31T15:33:19.823Z,52.41
2023-03-31T15:36:22.790Z,52.31
2023-03-31T15:39:27.381Z,53.19
2023-03-31T15:42:29.910Z,53.30
2023-03-31T15:45:39.118Z,52.84
2023-03-31T15:48:55.545Z,50.96
2023-03-31T15:52:00.621Z,50.85
2023-03-31T15:55:23.051Z,50.91
2023-03-31T15:58:56.469Z,51.93
2023-03-31T16:02:01.276Z,52.38
2023-03-31T16:05:10.425Z,53.26
2023-03-31T16:08:22.548Z,53.53
2023-03-31T16:11:35.985Z,54.25
2023-03-31T16:14:47.734Z,54.65
2023-03-31T16:17:53.142Z,53.91
2023-03-31T16:21:00.046Z,53.28
2023-03-31T16:24:04.449Z,52.96
2023-03-31T16:27:09.340Z,54.09
2023-03-31T16:30:32.838Z,54.10
2023-03-31T16:33:56.681Z,53.95
2023-03-31T16:36:59.859Z,54.16
2023-03-31T16:40:02.603Z,54.72
2023-03-31T16:43:28.887Z,55.20
2023-03-31T16:46:31.458Z,55.47
2023-03-31T16:49:34.776Z,56.43
2023-03-31T16:52:37.428Z,56.49
2023-03-31T16:55:41.091Z,56.79
2023-03-31T16:58:43.952Z,57.15
2023-03-31T17:01:47.040Z,57.49
2023-03-31T17:04:50.773Z,57.69
2023-03-31T17:07:55.154Z,57.96
2023-03-31T17:11:10.957Z,58.17
2023-03-31T17:14:14.049Z,58.35
2023-03-31T17:17:18.006Z,58.97
2023-03-31T17:20:21.440Z,58.53
2023-03-31T17:23:24.034Z,59.10
2023-03-31T17:26:27.198Z,59.46
2023-03-31T17:29:29.981Z,59.62
2023-03-31T17:32:33.216Z,60.07
2023-03-31T17:35:35.939Z,59.92
2023-03-31T17:38:39.992Z,60.32
2023-03-31T17:41:43.075Z,60.35
2023-03-31T17:44:47.886Z,60.93
2023-03-31T17:47:51.748Z,60.61
2023-03-31T17:50:56.106Z,61.01
2023-03-31T17:54:01.476Z,61.52
2023-03-31T17:57:07.355Z,61.50
2023-03-31T18:00:11.318Z,61.75
2023-03-31T18:03:14.374Z,61.74
2023-03-31T18:06:19.668Z,61.58
2023-03-31T18:09:23.061Z,62.06
2023-03-31T18:12:26.268Z,62.38
2023-03-31T18:15:29.379Z,62.44
2023-03-31T18:18:32.749Z,62.75
2023-03-31T18:21:38.592Z,62.84
2023-03-31T18:24:41.578Z,62.74
2023-03-31T18:27:47.346Z,62.58
2023-03-31T18:30:50.350Z,63.21
2023-03-31T18:33:54.810Z,64.83
2023-03-31T18:36:58.063Z,64.93
2023-03-31T18:40:01.704Z,65.40
2023-03-31T18:43:06.094Z,65.92
2023-03-31T18:46:10.723Z,66.41
2023-03-31T18:49:14.646Z,67.49
2023-03-31T18:52:17.885Z,67.19
2023-03-31T18:55:21.077Z,66.79
2023-03-31T18:58:26.064Z,67.73
2023-03-31T19:01:29.442Z,67.42
2023-03-31T19:04:33.102Z,67.88
2023-03-31T19:07:36.402Z,68.75
2023-03-31T19:10:39.812Z,68.41
2023-03-31T19:13:44.002Z,70.33
2023-03-31T19:16:47.298Z,69.77
2023-03-31T19:19:50.312Z,70.20
2023-03-31T19:22:53.729Z,70.37
2023-03-31T19:25:58.165Z,71.59
2023-03-31T19:29:03.170Z,72.13
2023-03-31T19:32:06.390Z,71.91
2023-03-31T19:35:11.369Z,72.75
2023-03-31T19:38:15.294Z,73.55
2023-03-31T19:41:18.732Z,73.09
2023-03-31T19:44:21.640Z,72.02
2023-03-31T19:47:25.868Z,71.14
2023-03-31T19:50:28.904Z,71.91
2023-03-31T19:53:32.962Z,72.30
2023-03-31T19:56:35.819Z,72.75
2023-03-31T19:59:39.393Z,74.15
2023-03-31T20:02:42.730Z,73.85
2023-03-31T20:05:46.200Z,75.08
2023-03-31T20:08:55.659Z,77.40
2023-03-31T20:11:58.771Z,78.16
2023-03-31T20:15:01.859Z,79.24
2023-03-31T20:18:05.735Z,79.79
2023-03-31T20:21:14.679Z,78.41
2023-03-31T20:24:18.903Z,80.24
2023-03-31T20:27:26.253Z,80.03
2023-03-31T20:30:29.489Z,81.79
2023-03-31T20:33:32.710Z,81.15
2023-03-31T20:36:35.625Z,80.81
2023-03-31T20:39:38.553Z,81.21
2023-03-31T20:42:41.821Z,81.54
2023-03-31T20:45:44.359Z,82.05
2023-03-31T20:48:49.553Z,82.06
2023-03-31T20:51:52.042Z,81.39
2023-03-31T20:54:54.929Z,82.25
2023-03-31T20:57:58.305Z,82.50
2023-03-31T21:01:01.296Z,85.33
2023-03-31T21:04:05.764Z,85.97
2023-03-31T21:07:08.557Z,86.56
2023-03-31T21:10:12.045Z,87.06
2023-03-31T21:13:16.443Z,88.18
2023-03-31T21:16:19.829Z,89.13
2023-03-31T21:19:23.122Z,89.08
2023-03-31T21:22:27.449Z,88.95
2023-03-31T21:25:32.555Z,88.06
2023-03-31T21:28:36.905Z,88.38
2023-03-31T21:31:41.602Z,88.15
2023-03-31T21:34:44.181Z,89.31
2023-03-31T21:37:47.551Z,90.12
2023-03-31T21:40:55.545Z,91.21
2023-03-31T21:44:00.908Z,91.43
2023-03-31T21:47:05.167Z,91.50
2023-03-31T21:50:08.553Z,91.94
2023-03-31T21:53:11.066Z,92.63
2023-03-31T21:56:14.129Z,92.71
2023-03-31T21:59:16.940Z,91.70
2023-03-31T22:02:19.995Z,92.37
2023-03-31T22:05:23.143Z,93.44
2023-03-31T22:08:29.610Z,92.89
2023-03-31T22:11:32.514Z,93.94
2023-03-31T22:14:37.768Z,94.07
2023-03-31T22:17:40.710Z,94.67
2023-03-31T22:20:44.353Z,94.05
2023-03-31T22:23:48.351Z,93.34
2023-03-31T22:26:50.939Z,93.84
2023-03-31T22:29:53.790Z,93.32
2023-03-31T22:32:56.723Z,92.38
2023-03-31T22:35:59.753Z,93.57
2023-03-31T22:39:02.375Z,93.64
2023-03-31T22:42:05.252Z,93.49
2023-03-31T22:45:08.284Z,92.45
2023-03-31T22:48:11.140Z,93.48
2023-03-31T22:51:14.485Z,93.47
2023-03-31T22:54:17.474Z,93.01
2023-03-31T22:57:19.982Z,92.42
2023-03-31T23:00:22.961Z,93.46
2023-03-31T23:03:26.277Z,93.77
2023-03-31T23:06:29.374Z,93.71
2023-03-31T23:09:32.240Z,94.00
2023-03-31T23:12:35.330Z,92.32
2023-03-31T23:15:38.026Z,93.36
2023-03-31T23:18:44.446Z,93.37
2023-03-31T23:21:47.677Z,93.65
2023-03-31T23:24:52.633Z,93.11
2023-03-31T23:27:55.131Z,92.91
2023-03-31T23:30:58.100Z,93.40
2023-03-31T23:34:01.288Z,93.34
2023-03-31T23:37:11.293Z,92.02
2023-03-31T23:40:13.899Z,92.98
2023-03-31T23:43:16.753Z,94.87
2023-03-31T23:46:19.658Z,93.69
2023-03-31T23:49:22.641Z,93.15
2023-03-31T23:52:25.360Z,93.42
2023-03-31T23:55:29.198Z,92.76
2023-03-31T23:58:32.452Z,93.11
